Terminal Aerodrome Forecast
Issued by NWS

Home | Current Version | Previous Version | Text Only | Print | Product List | Glossary On
Versions: 1 2 3 4 5 6 7 8 9 10 11 12 13 14 15 16 17 18 19 20 21 22
000
FTUS43 KBIS 302300
TAFDIK
TAF
KDIK 302320Z 0100/0124 02012KT 2SM -SHRA BR OVC002
     FM010500 28014KT P6SM OVC006
     FM011200 28016G24KT P6SM BKN015 OVC040
     FM011900 29019G28KT P6SM BKN040=

USA.gov is the U.S. government's official web portal to all federal, state and local government web resources and services.